Time;durP1;ratioP1;P1;durP2;ratioP2;P2;SDS_P1;SDS_P2;PMS_P1;PMS_P2;Temp;Humidity;BMP_temperature;BMP_pressure;BME280_temperature;BME280_humidity;BME280_pressure;Samples;Min_cycle;Max_cycle;Signal;HPM_P1;HPM_P2
2021/09/20 00:00:09;;;;;;;3.07;1.63;;;;;;;13.87;100.00;101360.72;5019530;28;20185;-73
2021/09/20 00:02:35;;;;;;;2.37;1.73;;;;;;;13.79;100.00;101353.09;5006583;28;20693;-73
2021/09/20 00:05:05;;;;;;;2.97;1.70;;;;;;;13.83;100.00;101356.91;5017614;28;20204;-73
2021/09/20 00:07:30;;;;;;;2.53;1.73;;;;;;;13.77;100.00;101360.72;5032435;28;20224;-73
2021/09/20 00:09:58;;;;;;;4.07;1.60;;;;;;;13.68;100.00;101356.94;5016178;28;20212;-72
2021/09/20 00:12:24;;;;;;;2.83;1.70;;;;;;;13.64;100.00;101347.63;4999609;28;20220;-72
2021/09/20 00:14:49;;;;;;;2.30;1.60;;;;;;;13.72;100.00;101352.56;5000129;28;20211;-73
2021/09/20 00:17:17;;;;;;;2.37;1.50;;;;;;;13.68;100.00;101356.94;5025830;28;20219;-72
2021/09/20 00:19:45;;;;;;;3.57;2.03;;;;;;;13.69;100.00;101361.28;5016090;28;20184;-72
2021/09/20 00:22:10;;;;;;;3.97;1.80;;;;;;;13.66;100.00;101358.28;5015652;28;20583;-72
2021/09/20 00:24:36;;;;;;;2.90;1.70;;;;;;;13.70;100.00;101371.13;5032831;28;20258;-73
2021/09/20 00:27:07;;;;;;;4.43;1.60;;;;;;;13.70;100.00;101371.13;5020633;28;20212;-73
2021/09/20 00:29:36;;;;;;;2.63;1.50;;;;;;;13.61;100.00;101374.69;5011472;28;20232;-72
2021/09/20 00:32:04;;;;;;;3.63;1.83;;;;;;;13.58;100.00;101367.84;5027224;28;20572;-72
2021/09/20 00:34:29;;;;;;;3.63;1.70;;;;;;;13.69;100.00;101364.00;4996658;28;20216;-73
2021/09/20 00:37:00;;;;;;;1.87;1.70;;;;;;;13.61;100.00;101353.66;4984990;28;20235;-73
2021/09/20 00:39:25;;;;;;;2.70;1.70;;;;;;;13.71;100.00;101361.81;5015709;28;20267;-72
2021/09/20 00:41:51;;;;;;;3.53;1.33;;;;;;;13.63;100.00;101364.31;5033143;28;20716;-72
2021/09/20 00:44:16;;;;;;;2.03;1.77;;;;;;;13.60;100.00;101365.66;5033367;28;20262;-72
2021/09/20 00:46:47;;;;;;;4.23;1.80;;;;;;;13.66;100.00;101370.03;5031430;28;20310;-72
2021/09/20 00:49:14;;;;;;;3.87;1.90;;;;;;;13.73;100.00;101365.09;4979794;28;20263;-73
2021/09/20 00:51:42;;;;;;;2.53;1.57;;;;;;;13.76;100.00;101367.28;4980441;28;20249;-72
2021/09/20 00:54:08;;;;;;;3.00;1.53;;;;;;;13.74;100.00;101369.47;5016056;28;20291;-73
2021/09/20 00:56:35;;;;;;;1.87;1.40;;;;;;;13.74;100.00;101366.75;5008315;28;20216;-73
2021/09/20 00:59:03;;;;;;;3.37;1.80;;;;;;;13.50;100.00;101365.69;4989187;28;20726;-72
2021/09/20 01:01:33;;;;;;;2.83;1.40;;;;;;;13.46;100.00;101372.78;5012886;28;20228;-73
2021/09/20 01:04:01;;;;;;;2.87;1.50;;;;;;;13.57;100.00;101366.22;4998216;28;20263;-73
2021/09/20 01:06:28;;;;;;;2.87;1.53;;;;;;;13.64;100.00;101365.94;4979144;28;20225;-73
2021/09/20 01:08:57;;;;;;;2.93;1.63;;;;;;;13.64;100.00;101364.00;5008230;28;20259;-73
2021/09/20 01:11:27;;;;;;;4.13;1.70;;;;;;;13.56;100.00;101364.56;4995352;28;20216;-73
2021/09/20 01:13:55;;;;;;;3.40;1.80;;;;;;;13.59;100.00;101365.94;5007548;28;20213;-73
2021/09/20 01:16:20;;;;;;;2.57;1.60;;;;;;;13.51;100.00;101361.84;4995528;28;20228;-71
2021/09/20 01:18:46;;;;;;;2.57;1.60;;;;;;;13.41;100.00;101358.31;5009176;28;20204;-73
2021/09/20 01:21:15;;;;;;;2.53;1.60;;;;;;;13.41;100.00;101361.03;4998505;28;20717;-72
2021/09/20 01:23:43;;;;;;;2.67;1.70;;;;;;;13.48;100.00;101356.94;5020218;28;20675;-72
2021/09/20 01:26:13;;;;;;;2.00;1.80;;;;;;;13.45;100.00;101361.31;4987571;28;20274;-71
2021/09/20 01:28:43;;;;;;;4.17;1.70;;;;;;;13.45;100.00;101373.84;5009854;28;20212;-75
2021/09/20 01:31:11;;;;;;;1.60;1.50;;;;;;;13.57;100.00;101363.50;5011398;28;20243;-73
2021/09/20 01:33:39;;;;;;;3.37;1.37;;;;;;;13.59;100.00;101363.22;4990494;28;20200;-72
2021/09/20 01:36:05;;;;;;;3.83;1.80;;;;;;;13.53;100.00;101370.59;5014426;28;20250;-72
2021/09/20 01:38:33;;;;;;;3.40;1.70;;;;;;;13.44;100.00;101370.59;4995274;28;20189;-73
2021/09/20 01:40:58;;;;;;;3.27;1.80;;;;;;;13.38;100.00;101371.69;4994986;28;20296;-70
2021/09/20 01:43:26;;;;;;;2.97;1.67;;;;;;;13.31;100.00;101371.94;4985290;28;20704;-73
2021/09/20 01:45:52;;;;;;;3.20;1.80;;;;;;;13.46;100.00;101375.50;5032394;28;20219;-72
2021/09/20 01:48:20;;;;;;;2.33;1.67;;;;;;;13.35;100.00;101369.50;5025257;28;20269;-72
2021/09/20 01:50:46;;;;;;;3.03;1.80;;;;;;;13.41;100.00;101373.88;4995188;28;20316;-73
2021/09/20 01:53:17;;;;;;;3.17;1.90;;;;;;;13.46;100.00;101375.50;4999491;28;20200;-73
2021/09/20 01:55:43;;;;;;;2.37;1.80;;;;;;;13.49;100.00;101374.13;4992800;28;20216;-73
2021/09/20 01:58:11;;;;;;;3.07;1.83;;;;;;;13.40;100.00;101374.97;5019076;28;20184;-72
2021/09/20 02:00:47;;;;;;;2.53;1.80;;;;;;;13.44;100.00;101381.50;4994926;28;20280;-72
2021/09/20 02:03:12;;;;;;;3.40;1.80;;;;;;;13.44;100.00;101382.31;4982006;28;20610;-72
2021/09/20 02:05:40;;;;;;;1.73;1.50;;;;;;;13.41;100.00;101382.88;5013959;28;20230;-72
2021/09/20 02:08:08;;;;;;;3.27;2.07;;;;;;;13.45;100.00;101379.31;4996258;28;20215;-73
2021/09/20 02:10:37;;;;;;;2.93;1.70;;;;;;;13.41;100.00;101385.59;4994535;28;20307;-73
2021/09/20 02:13:07;;;;;;;3.00;1.80;;;;;;;13.40;100.00;101380.41;4995242;28;20184;-73
2021/09/20 02:15:32;;;;;;;3.53;1.90;;;;;;;13.38;100.00;101379.88;5013744;28;20234;-74
2021/09/20 02:18:00;;;;;;;3.40;2.00;;;;;;;13.40;100.00;101373.03;5031289;28;20180;-72
2021/09/20 02:20:25;;;;;;;4.10;1.90;;;;;;;13.42;100.00;101380.97;5013816;28;20820;-72
2021/09/20 02:22:56;;;;;;;3.53;1.93;;;;;;;13.33;100.00;101377.13;5014012;28;20184;-73
2021/09/20 02:25:23;;;;;;;4.77;1.93;;;;;;;13.39;100.00;101379.59;5023705;28;20204;-73
2021/09/20 02:27:49;;;;;;;2.50;1.60;;;;;;;13.36;100.00;101373.88;5018537;28;20176;-72
2021/09/20 02:30:14;;;;;;;2.10;1.80;;;;;;;13.34;100.00;101371.41;5006454;28;20246;-73
2021/09/20 02:32:42;;;;;;;2.57;1.90;;;;;;;13.32;100.00;101378.25;5015283;28;20191;-72
2021/09/20 02:35:08;;;;;;;2.57;1.70;;;;;;;13.34;100.00;101381.50;5010383;28;20216;-72
2021/09/20 02:37:36;;;;;;;4.20;1.87;;;;;;;13.39;100.00;101389.69;4993924;28;20568;-73
2021/09/20 02:40:05;;;;;;;4.03;1.70;;;;;;;13.45;100.00;101377.69;5007230;28;20525;-73
2021/09/20 02:42:35;;;;;;;3.97;2.00;;;;;;;13.37;100.00;101380.94;5031120;28;20670;-73
2021/09/20 02:45:09;;;;;;;3.33;2.00;;;;;;;13.31;100.00;101382.03;4998034;28;20208;-73
2021/09/20 02:47:37;;;;;;;5.97;1.90;;;;;;;13.29;100.00;101384.22;5013704;28;20214;-73
2021/09/20 02:50:03;;;;;;;2.70;1.90;;;;;;;13.39;100.00;101379.59;5001007;28;20209;-73
2021/09/20 02:52:31;;;;;;;3.00;2.03;;;;;;;13.32;100.00;101384.50;4994184;28;20177;-72
2021/09/20 02:54:57;;;;;;;2.77;1.80;;;;;;;13.24;100.00;101395.13;5009844;28;20693;-73
2021/09/20 02:57:25;;;;;;;3.17;2.20;;;;;;;13.23;100.00;101382.59;5001258;28;20267;-72
2021/09/20 02:59:53;;;;;;;3.50;1.80;;;;;;;13.28;100.00;101391.59;5040238;28;20189;-73
2021/09/20 03:02:20;;;;;;;2.77;1.60;;;;;;;13.28;100.00;101390.78;5012717;28;20222;-73
2021/09/20 03:04:48;;;;;;;2.70;1.80;;;;;;;13.35;100.00;101394.03;4997084;28;20197;-74
2021/09/20 03:07:16;;;;;;;2.50;1.80;;;;;;;13.35;100.00;101389.44;5013131;28;20227;-73
2021/09/20 03:09:42;;;;;;;3.10;1.87;;;;;;;13.26;100.00;101395.66;5009604;28;20224;-73
2021/09/20 03:12:07;;;;;;;4.03;1.90;;;;;;;13.33;100.00;101390.78;4993388;28;20236;-73
2021/09/20 03:14:38;;;;;;;3.03;2.00;;;;;;;13.36;100.00;101387.50;4983066;28;20697;-73
2021/09/20 03:17:06;;;;;;;2.37;1.77;;;;;;;13.03;100.00;101393.47;5029271;28;20311;-72
2021/09/20 03:19:35;;;;;;;2.90;2.00;;;;;;;13.14;100.00;101395.13;4993785;28;20192;-74
2021/09/20 03:22:00;;;;;;;3.33;1.87;;;;;;;13.00;100.00;101396.72;4977152;28;20706;-74
2021/09/20 03:24:26;;;;;;;3.33;1.70;;;;;;;13.15;100.00;101394.06;4995816;28;20213;-73
2021/09/20 03:26:52;;;;;;;5.27;1.80;;;;;;;13.16;100.00;101393.75;5020531;28;20304;-73
2021/09/20 03:29:18;;;;;;;2.87;1.87;;;;;;;13.21;100.00;101396.50;5025540;28;20208;-73
2021/09/20 03:31:44;;;;;;;5.03;1.77;;;;;;;12.98;100.00;101398.91;4993330;28;20227;-74
2021/09/20 03:34:09;;;;;;;2.50;1.87;;;;;;;12.91;100.00;101403.00;4993543;28;20204;-73
2021/09/20 03:36:35;;;;;;;2.60;1.90;;;;;;;12.95;100.00;101407.66;4998002;28;20220;-72
2021/09/20 03:39:00;;;;;;;2.73;1.77;;;;;;;12.86;100.00;101398.34;4993033;28;20643;-73
2021/09/20 03:41:26;;;;;;;3.50;2.10;;;;;;;12.88;100.00;101407.06;4988121;28;20228;-72
2021/09/20 03:43:56;;;;;;;4.27;2.00;;;;;;;12.89;100.00;101400.56;5013355;28;20212;-73
2021/09/20 03:46:25;;;;;;;3.07;1.73;;;;;;;12.93;100.00;101406.25;5016526;28;20217;-74
2021/09/20 03:48:50;;;;;;;2.93;2.10;;;;;;;13.00;100.00;101410.38;4977104;28;20755;-72
2021/09/20 03:51:16;;;;;;;2.57;1.70;;;;;;;13.03;100.00;101412.56;4990881;28;20274;-73
2021/09/20 03:53:41;;;;;;;3.57;1.90;;;;;;;13.02;100.00;101410.09;5013280;28;20279;-73
2021/09/20 03:56:09;;;;;;;3.60;1.90;;;;;;;13.05;100.00;101415.84;5023557;28;20688;-74
2021/09/20 03:58:37;;;;;;;3.90;1.87;;;;;;;13.05;100.00;101420.50;5006032;28;20177;-72
2021/09/20 04:01:03;;;;;;;2.97;1.90;;;;;;;12.83;100.00;101430.78;4998907;28;20657;-74
2021/09/20 04:03:29;;;;;;;5.03;2.30;;;;;;;12.90;100.00;101424.00;5024639;28;20247;-71
2021/09/20 04:05:56;;;;;;;3.43;1.90;;;;;;;12.84;100.00;101425.06;5001884;28;20299;-72
2021/09/20 04:08:29;;;;;;;4.43;2.10;;;;;;;12.54;100.00;101417.81;5029425;28;20184;-74
2021/09/20 04:10:56;;;;;;;2.43;2.00;;;;;;;12.73;100.00;101426.09;4990567;28;20224;-73
2021/09/20 04:13:23;;;;;;;3.80;2.13;;;;;;;12.61;100.00;101429.31;5017550;28;20212;-72
2021/09/20 04:15:53;;;;;;;2.97;2.10;;;;;;;12.75;100.00;101425.81;5024352;28;20282;-73
2021/09/20 04:18:27;;;;;;;3.77;1.90;;;;;;;12.88;100.00;101433.53;5009604;28;20181;-73
2021/09/20 04:20:58;;;;;;;3.53;2.27;;;;;;;12.83;100.00;101434.31;5006926;28;20212;-73
2021/09/20 04:23:28;;;;;;;3.13;1.83;;;;;;;12.68;100.00;101435.34;5029914;28;20233;-73
2021/09/20 04:25:58;;;;;;;5.13;2.80;;;;;;;12.80;100.00;101440.31;5004356;28;20660;-74
2021/09/20 04:28:27;;;;;;;3.53;1.87;;;;;;;12.69;100.00;101437.78;5028738;28;20723;-74
2021/09/20 04:30:53;;;;;;;3.40;1.90;;;;;;;12.82;100.00;101427.25;5012459;28;20899;-73
2021/09/20 04:33:19;;;;;;;3.07;2.00;;;;;;;12.90;100.00;101434.09;4980301;28;20201;-73
2021/09/20 04:35:47;;;;;;;3.50;2.10;;;;;;;12.87;100.00;101423.69;4996201;28;20240;-73
2021/09/20 04:38:18;;;;;;;3.77;1.90;;;;;;;12.93;100.00;101428.91;4997629;28;20188;-73
2021/09/20 04:40:44;;;;;;;2.20;2.00;;;;;;;12.84;100.00;101435.97;5025615;28;20216;-73
2021/09/20 04:43:09;;;;;;;3.00;2.13;;;;;;;12.71;100.00;101439.16;4999363;28;20208;-74
2021/09/20 04:45:38;;;;;;;3.33;2.10;;;;;;;12.68;100.00;101442.41;5009633;28;20795;-74
2021/09/20 04:48:06;;;;;;;2.77;2.00;;;;;;;12.76;100.00;101450.09;5009659;28;20694;-74
2021/09/20 04:50:34;;;;;;;2.33;2.10;;;;;;;12.75;100.00;101445.72;5032256;28;20216;-72
2021/09/20 04:53:00;;;;;;;4.17;2.00;;;;;;;12.81;100.00;101447.41;5011668;28;20185;-74
2021/09/20 04:55:25;;;;;;;3.73;2.00;;;;;;;12.79;100.00;101459.66;5011167;28;20246;-72
2021/09/20 04:57:51;;;;;;;3.03;2.33;;;;;;;12.63;100.00;101459.84;5002593;28;20331;-73
2021/09/20 05:00:19;;;;;;;3.33;2.30;;;;;;;12.79;100.00;101465.94;5011907;28;20178;-74
2021/09/20 05:02:48;;;;;;;2.53;2.20;;;;;;;12.68;100.00;101468.88;5030328;28;20181;-73
2021/09/20 05:05:13;;;;;;;4.23;2.43;;;;;;;12.74;100.00;101479.50;5032679;28;20262;-74
2021/09/20 05:07:39;;;;;;;5.67;2.50;;;;;;;12.75;100.00;101470.25;5004161;28;20180;-74
2021/09/20 05:10:08;;;;;;;3.80;2.10;;;;;;;12.74;100.00;101476.78;4997536;28;20219;-74
2021/09/20 05:12:33;;;;;;;2.73;2.03;;;;;;;12.86;100.00;101466.53;4996822;28;20238;-75
2021/09/20 05:14:59;;;;;;;2.80;2.30;;;;;;;12.70;100.00;101467.50;5015401;28;20212;-72
2021/09/20 05:17:27;;;;;;;3.17;2.00;;;;;;;12.76;100.00;101471.06;5021358;28;20225;-75
2021/09/20 05:19:52;;;;;;;3.37;2.70;;;;;;;12.74;100.00;101475.97;5027977;28;20177;-73
2021/09/20 05:22:18;;;;;;;3.47;2.47;;;;;;;12.65;100.00;101477.56;5008494;28;20270;-74
2021/09/20 05:24:46;;;;;;;5.10;2.10;;;;;;;12.56;100.00;101487.31;5031929;28;20682;-73
2021/09/20 05:27:13;;;;;;;2.90;2.30;;;;;;;12.54;100.00;101478.59;5020493;28;20283;-73
2021/09/20 05:29:39;;;;;;;2.53;2.20;;;;;;;12.64;100.00;101483.31;5012389;28;20625;-73
2021/09/20 05:32:05;;;;;;;4.37;2.00;;;;;;;12.62;100.00;101488.19;5028222;28;20216;-74
2021/09/20 05:34:30;;;;;;;4.93;2.33;;;;;;;12.59;100.00;101486.00;5015375;28;20238;-74
2021/09/20 05:36:56;;;;;;;4.90;2.20;;;;;;;12.75;100.00;101483.88;4998750;28;20224;-73
2021/09/20 05:39:24;;;;;;;2.43;2.20;;;;;;;12.78;100.00;101488.81;4999301;28;20183;-74
2021/09/20 05:41:50;;;;;;;4.33;2.47;;;;;;;12.84;100.00;101495.97;5028464;28;20225;-72
2021/09/20 05:44:15;;;;;;;5.97;2.53;;;;;;;12.88;100.00;101494.34;4993508;28;20239;-72
2021/09/20 05:46:41;;;;;;;3.17;2.17;;;;;;;12.94;100.00;101500.63;4993884;28;20212;-72
2021/09/20 05:49:06;;;;;;;2.60;2.20;;;;;;;12.95;100.00;101504.97;5030808;28;20216;-73
2021/09/20 05:51:33;;;;;;;3.73;2.20;;;;;;;12.93;100.00;101498.97;5014048;28;20227;-72
2021/09/20 05:54:00;;;;;;;2.37;1.97;;;;;;;12.95;100.00;101497.66;4995790;28;20213;-73
2021/09/20 05:56:28;;;;;;;2.50;2.10;;;;;;;13.05;100.00;101496.84;5008614;28;20212;-73
2021/09/20 05:58:54;;;;;;;4.73;2.20;;;;;;;13.07;100.00;101500.94;5007886;28;20184;-74
2021/09/20 06:01:20;;;;;;;3.27;2.00;;;;;;;13.05;100.00;101500.41;4979093;28;20224;-73
2021/09/20 06:03:47;;;;;;;2.30;1.90;;;;;;;13.04;100.00;101498.78;5029059;28;20277;-74
2021/09/20 06:06:17;;;;;;;4.40;2.00;;;;;;;13.15;100.00;101503.19;5030913;28;20247;-74
2021/09/20 06:08:45;;;;;;;3.23;2.00;;;;;;;13.22;100.00;101507.28;5032043;28;20294;-73
2021/09/20 06:11:12;;;;;;;2.83;2.37;;;;;;;12.99;100.00;101497.94;4998102;28;20223;-74
2021/09/20 06:13:41;;;;;;;4.27;2.00;;;;;;;13.11;100.00;101502.88;5015545;28;20263;-73
2021/09/20 06:16:08;;;;;;;2.03;1.83;;;;;;;13.19;100.00;101509.72;5014844;28;20739;-74
2021/09/20 06:18:39;;;;;;;3.33;2.37;;;;;;;13.21;100.00;101507.56;5017908;28;20506;-74
2021/09/20 06:21:04;;;;;;;2.83;2.00;;;;;;;13.19;100.00;101509.72;4994878;28;20681;-74
2021/09/20 06:23:32;;;;;;;4.27;2.10;;;;;;;13.01;100.00;101509.41;5006233;28;20212;-73
2021/09/20 06:26:00;;;;;;;3.30;2.10;;;;;;;13.10;100.00;101506.69;5008767;28;20270;-73
2021/09/20 06:28:26;;;;;;;4.47;2.27;;;;;;;13.17;100.00;101511.91;5028974;28;20192;-72
2021/09/20 06:30:52;;;;;;;4.27;2.40;;;;;;;13.05;100.00;101505.84;5013988;28;20728;-73
2021/09/20 06:33:17;;;;;;;2.70;2.20;;;;;;;12.85;100.00;101505.75;5010998;28;20691;-73
2021/09/20 06:35:43;;;;;;;3.67;2.07;;;;;;;12.93;100.00;101510.72;5010634;28;20213;-72
2021/09/20 06:38:09;;;;;;;4.00;2.03;;;;;;;12.99;100.00;101511.56;4981272;28;20173;-73
2021/09/20 06:40:34;;;;;;;4.80;2.00;;;;;;;13.13;100.00;101516.25;4994472;28;20593;-72
2021/09/20 06:43:00;;;;;;;2.90;2.23;;;;;;;13.32;100.00;101514.69;4994583;28;20188;-72
2021/09/20 06:45:26;;;;;;;3.53;2.20;;;;;;;13.34;100.00;101512.50;5030829;28;21425;-72
2021/09/20 06:47:54;;;;;;;3.20;1.87;;;;;;;13.34;100.00;101516.03;5011073;28;20196;-72
2021/09/20 06:50:22;;;;;;;3.33;2.07;;;;;;;13.43;100.00;101522.63;5009486;28;20216;-72
2021/09/20 06:52:50;;;;;;;3.97;2.10;;;;;;;13.43;100.00;101516.34;5013908;28;20263;-73
2021/09/20 06:55:16;;;;;;;2.80;1.93;;;;;;;13.45;100.00;101520.44;5008103;28;20311;-72
2021/09/20 06:57:42;;;;;;;3.87;1.97;;;;;;;13.42;100.00;101511.97;5021011;28;20181;-74
2021/09/20 07:00:08;;;;;;;1.97;1.80;;;;;;;13.54;100.00;101519.63;4993631;28;20185;-72
2021/09/20 07:02:33;;;;;;;4.30;1.90;;;;;;;13.41;100.00;101513.06;4994350;28;20595;-73
2021/09/20 07:05:01;;;;;;;3.27;2.03;;;;;;;13.38;100.00;101525.31;4994291;28;20204;-73
2021/09/20 07:07:27;;;;;;;4.43;2.10;;;;;;;13.43;100.00;101505.44;4977928;28;20354;-74
2021/09/20 07:09:53;;;;;;;3.40;1.93;;;;;;;13.65;100.00;101518.56;5026886;28;20204;-74
2021/09/20 07:12:18;;;;;;;4.40;2.07;;;;;;;13.78;100.00;101518.03;5014245;28;20692;-73
2021/09/20 07:14:44;;;;;;;3.43;2.00;;;;;;;13.82;100.00;101519.13;5014275;28;20208;-73
2021/09/20 07:17:12;;;;;;;1.90;1.80;;;;;;;13.80;100.00;101513.09;4997711;28;20243;-72
2021/09/20 07:19:37;;;;;;;4.23;2.20;;;;;;;13.75;100.00;101524.00;4997132;28;20680;-73
2021/09/20 07:22:05;;;;;;;2.67;1.90;;;;;;;13.84;100.00;101525.13;4997289;28;20224;-74
2021/09/20 07:24:33;;;;;;;3.67;1.90;;;;;;;13.86;100.00;101518.31;5014505;28;20208;-73
2021/09/20 07:27:01;;;;;;;2.43;1.60;;;;;;;13.87;100.00;101530.06;4985550;28;20211;-74
2021/09/20 07:29:27;;;;;;;2.40;2.20;;;;;;;13.87;100.00;101519.13;4999699;28;20212;-73
2021/09/20 07:31:55;;;;;;;2.13;1.83;;;;;;;13.72;100.00;101527.31;4993686;28;20220;-73
2021/09/20 07:34:21;;;;;;;2.57;2.10;;;;;;;13.92;100.00;101528.13;4993765;28;20291;-73
2021/09/20 07:36:49;;;;;;;2.57;2.10;;;;;;;13.88;100.00;101527.06;4993375;28;20244;-73
2021/09/20 07:39:19;;;;;;;5.70;2.53;;;;;;;13.91;100.00;101531.13;4998179;28;20196;-73
2021/09/20 07:41:48;;;;;;;1.93;1.70;;;;;;;13.84;100.00;101536.88;4985312;28;20697;-74
2021/09/20 07:44:13;;;;;;;4.53;2.13;;;;;;;13.95;100.00;101543.16;5012817;28;20200;-74
2021/09/20 07:46:43;;;;;;;2.23;2.00;;;;;;;13.79;100.00;101544.25;5017744;28;20270;-73
2021/09/20 07:49:14;;;;;;;4.33;2.00;;;;;;;13.95;100.00;101538.50;5014815;28;20208;-73
2021/09/20 07:51:40;;;;;;;3.83;1.90;;;;;;;14.10;100.00;101546.75;4998573;28;20220;-73
2021/09/20 07:54:05;;;;;;;2.87;2.00;;;;;;;14.11;100.00;101547.56;4995626;28;20265;-74
2021/09/20 07:56:32;;;;;;;3.50;2.03;;;;;;;14.19;100.00;101549.75;5009200;28;20220;-74
2021/09/20 07:59:03;;;;;;;2.20;2.00;;;;;;;14.20;100.00;101559.59;5023252;28;20240;-74
2021/09/20 08:01:31;;;;;;;2.10;1.90;;;;;;;14.29;100.00;101556.84;5017469;28;20235;-73
2021/09/20 08:04:01;;;;;;;2.77;1.90;;;;;;;14.34;100.00;101559.59;4999555;28;20204;-74
2021/09/20 08:06:28;;;;;;;3.07;2.00;;;;;;;14.53;100.00;101557.91;4997444;28;20629;-73
2021/09/20 08:08:58;;;;;;;2.23;1.70;;;;;;;14.59;100.00;101561.47;4981771;28;20297;-75
2021/09/20 08:11:29;;;;;;;2.97;1.90;;;;;;;14.59;100.00;101559.53;5016253;28;20604;-73
2021/09/20 08:13:55;;;;;;;2.53;1.70;;;;;;;14.28;100.00;101568.91;5029203;28;20204;-73
2021/09/20 08:16:21;;;;;;;2.83;1.80;;;;;;;14.51;100.00;101565.59;5016452;28;20226;-74
2021/09/20 08:18:48;;;;;;;4.23;1.97;;;;;;;14.61;100.00;101571.03;5016617;28;20562;-73
2021/09/20 08:21:16;;;;;;;2.03;1.53;;;;;;;14.60;100.00;101569.41;5000495;28;20220;-72
2021/09/20 08:23:44;;;;;;;2.93;1.97;;;;;;;14.39;100.00;101575.16;5017569;28;20716;-74
2021/09/20 08:26:10;;;;;;;3.53;2.10;;;;;;;14.64;100.00;101575.94;4999867;28;20213;-73
2021/09/20 08:28:37;;;;;;;1.93;1.80;;;;;;;14.39;100.00;101577.88;5011219;28;20184;-73
2021/09/20 08:31:05;;;;;;;1.97;1.73;;;;;;;14.16;100.00;101581.19;4996539;28;20220;-73
2021/09/20 08:33:35;;;;;;;2.73;1.90;;;;;;;14.03;100.00;101578.19;4996782;28;20204;-73
2021/09/20 08:36:01;;;;;;;2.90;1.80;;;;;;;14.37;100.00;101575.41;5027047;28;20590;-73
2021/09/20 08:38:29;;;;;;;5.03;1.90;;;;;;;14.45;100.00;101588.56;5016598;28;20211;-74
2021/09/20 08:40:58;;;;;;;3.00;1.93;;;;;;;14.68;100.00;101587.97;5012900;28;20698;-74
2021/09/20 08:43:23;;;;;;;5.27;2.20;;;;;;;14.44;100.00;101584.16;5006305;28;20204;-74
2021/09/20 08:45:49;;;;;;;2.97;1.80;;;;;;;14.60;100.00;101585.00;5023739;28;20219;-73
2021/09/20 08:48:15;;;;;;;1.93;1.77;;;;;;;14.70;100.00;101585.78;5016025;28;20184;-74
2021/09/20 08:50:40;;;;;;;3.37;1.80;;;;;;;14.76;100.00;101587.41;5023799;28;20225;-74
2021/09/20 08:53:08;;;;;;;2.87;1.90;;;;;;;14.59;100.00;101584.16;4996218;28;20560;-76
2021/09/20 08:55:34;;;;;;;1.77;1.50;;;;;;;14.52;100.00;101589.06;4997553;28;20322;-72
2021/09/20 08:58:00;;;;;;;3.47;2.00;;;;;;;14.82;100.00;101583.56;5015963;28;20633;-73
2021/09/20 09:00:25;;;;;;;3.73;2.13;;;;;;;14.91;100.00;101590.09;5026117;28;20185;-73
2021/09/20 09:02:53;;;;;;;2.72;1.90;;;;;;;14.68;100.00;101591.50;4996178;28;20276;-75
2021/09/20 09:05:24;;;;;;;2.05;1.60;;;;;;;14.75;100.00;101593.97;4995846;28;20186;-72
2021/09/20 09:07:57;;;;;;;2.47;1.87;;;;;;;14.71;100.00;101598.38;5013851;28;20259;-72
2021/09/20 09:10:24;;;;;;;2.33;1.80;;;;;;;14.88;100.00;101593.41;4984535;28;20228;-74
2021/09/20 09:12:53;;;;;;;2.07;1.70;;;;;;;14.66;100.00;101595.63;5016624;28;20180;-73
2021/09/20 09:15:23;;;;;;;2.20;1.83;;;;;;;14.95;100.00;101593.94;5014890;28;20192;-75
2021/09/20 09:17:53;;;;;;;1.93;1.70;;;;;;;14.92;100.00;101594.47;5016153;28;20262;-73
2021/09/20 09:20:29;;;;;;;3.33;2.00;;;;;;;14.68;100.00;101605.19;4999170;28;20184;-73
2021/09/20 09:23:03;;;;;;;3.90;1.87;;;;;;;14.67;100.00;101608.22;5015856;28;20230;-72
2021/09/20 09:25:45;;;;;;;3.73;1.90;;;;;;;14.70;100.00;101613.13;5012046;28;20636;-73
2021/09/20 09:28:18;;;;;;;2.40;1.70;;;;;;;14.58;100.00;101615.34;5009278;28;20187;-74
2021/09/20 09:30:45;;;;;;;2.10;1.63;;;;;;;14.61;100.00;101612.03;5010282;28;20617;-74
2021/09/20 09:33:26;;;;;;;1.77;1.67;;;;;;;14.62;100.00;101608.22;4979636;28;20189;-73
2021/09/20 09:35:53;;;;;;;1.93;1.60;;;;;;;14.89;100.00;101617.75;4984609;28;20261;-74
2021/09/20 09:38:19;;;;;;;2.83;1.80;;;;;;;15.19;99.19;101615.78;5016193;28;20270;-73
2021/09/20 09:40:58;;;;;;;1.70;1.50;;;;;;;14.89;100.00;101616.91;5011520;28;20304;-73
2021/09/20 09:43:32;;;;;;;1.80;1.70;;;;;;;14.75;100.00;101615.88;4997001;28;20247;-72
2021/09/20 09:46:02;;;;;;;2.73;1.80;;;;;;;14.48;100.00;101620.00;5011328;28;20219;-73
2021/09/20 09:48:36;;;;;;;2.03;1.83;;;;;;;14.76;100.00;101617.47;4995026;28;20204;-74
2021/09/20 09:51:03;;;;;;;2.57;1.87;;;;;;;14.68;100.00;101615.31;4997794;28;20244;-72
2021/09/20 09:53:36;;;;;;;2.20;2.00;;;;;;;14.71;100.00;101620.25;5014230;28;20219;-73
2021/09/20 09:56:20;;;;;;;2.10;1.80;;;;;;;14.89;100.00;101623.22;5022070;28;20213;-74
2021/09/20 09:59:04;;;;;;;3.43;1.80;;;;;;;15.02;100.00;101612.53;5011170;28;20701;-73
2021/09/20 10:01:35;;;;;;;2.77;1.80;;;;;;;14.89;99.91;101611.44;5014460;28;20229;-73
2021/09/20 10:04:16;;;;;;;4.40;1.73;;;;;;;15.07;95.80;101615.25;4978272;28;20201;-74
2021/09/20 10:06:47;;;;;;;1.93;1.53;;;;;;;15.55;92.80;101614.56;4998267;28;20216;-73
2021/09/20 10:09:14;;;;;;;2.70;1.60;;;;;;;15.74;92.68;101607.31;4978495;28;20217;-71
2021/09/20 10:11:44;;;;;;;4.20;1.80;;;;;;;15.77;94.08;101604.84;4983093;28;20415;-74
2021/09/20 10:14:12;;;;;;;1.83;1.70;;;;;;;15.72;94.21;101609.53;5019671;28;20197;-73
2021/09/20 10:16:38;;;;;;;4.70;2.20;;;;;;;15.93;94.85;101614.56;4996942;28;20248;-72
2021/09/20 10:19:06;;;;;;;2.33;1.50;;;;;;;15.66;92.55;101613.38;4978982;28;20177;-72
2021/09/20 10:21:34;;;;;;;3.60;1.80;;;;;;;15.64;93.95;101607.34;4979209;28;20213;-74
2021/09/20 10:24:00;;;;;;;3.10;1.80;;;;;;;15.91;94.64;101617.59;5011487;28;20205;-74
2021/09/20 10:26:26;;;;;;;2.47;1.88;;;;;;;15.80;90.41;101610.56;4990505;28;20733;-72
2021/09/20 10:28:53;;;;;;;3.60;2.00;;;;;;;15.78;91.43;101620.16;5021766;28;20336;-74
2021/09/20 10:31:18;;;;;;;2.30;1.90;;;;;;;16.04;89.25;101622.44;5000557;28;20732;-72
2021/09/20 10:33:44;;;;;;;2.30;1.63;;;;;;;16.57;87.77;101616.84;5003928;28;20204;-72
2021/09/20 10:36:12;;;;;;;4.90;1.70;;;;;;;16.98;85.13;101618.94;5031466;28;20311;-73
2021/09/20 10:38:41;;;;;;;3.72;1.83;;;;;;;17.13;84.14;101597.59;4998218;28;20681;-74
2021/09/20 10:41:24;;;;;;;2.58;2.00;;;;;;;17.15;83.20;101602.81;4998174;28;20228;-74
2021/09/20 10:44:04;;;;;;;3.15;2.10;;;;;;;16.72;82.97;101614.81;4994716;28;20204;-71
2021/09/20 10:46:32;;;;;;;2.63;1.83;;;;;;;17.00;80.02;101611.22;5012193;28;20265;-74
2021/09/20 10:49:05;;;;;;;3.47;2.60;;;;;;;16.95;81.82;101611.25;5013914;28;20252;-72
2021/09/20 10:51:40;;;;;;;4.20;2.60;;;;;;;17.13;81.55;101602.28;4998431;28;20216;-74
2021/09/20 10:54:13;;;;;;;3.85;2.60;;;;;;;17.29;78.49;101606.50;4999217;28;20291;-73
2021/09/20 10:56:38;;;;;;;5.20;2.83;;;;;;;17.15;79.08;101609.09;5013318;28;20273;-74
2021/09/20 10:59:13;;;;;;;4.43;2.38;;;;;;;17.35;79.82;101606.16;4991428;28;20184;-73
2021/09/20 11:01:39;;;;;;;3.10;1.90;;;;;;;17.43;76.18;101595.31;5031230;28;20230;-73
2021/09/20 11:04:12;;;;;;;2.50;2.00;;;;;;;17.52;74.55;101590.81;5014228;28;20207;-74
2021/09/20 11:06:40;;;;;;;2.15;1.70;;;;;;;17.49;72.46;101594.16;5031215;28;20220;-72
2021/09/20 11:09:08;;;;;;;3.05;1.90;;;;;;;17.71;73.70;101591.66;4994348;28;20255;-73
2021/09/20 11:11:43;;;;;;;3.13;1.73;;;;;;;17.68;72.78;101581.25;5016247;28;20788;-75
2021/09/20 11:14:24;;;;;;;2.15;1.63;;;;;;;17.67;69.67;101590.59;5008220;28;20216;-73
2021/09/20 11:16:59;;;;;;;2.65;1.65;;;;;;;16.76;71.46;101593.91;5010316;28;20259;-72
2021/09/20 11:19:28;;;;;;;2.92;1.63;;;;;;;16.59;66.73;101598.16;5026738;28;20192;-72
2021/09/20 11:22:02;;;;;;;2.40;1.85;;;;;;;16.80;63.93;101594.94;5011241;28;20655;-74